Logo AVAMET
Benvolgut visitant, si us plau, ingressa Recuperar contrasenya
AVAMET paisatges

Alcoi IES Pare Vitòria

Dades diàries. Acumulats / Últims 30 dies disponibles

Data Temperatura (°C) Humitat rel. (%) Pressió rel. (hPa) Vent (km/h) Precipitació
Mínima Mitjana Màxima Amplitud
tèrmica
Mínima Mitjana Màxima Mínima Mitjana Màxima Predom. Mitjana Ràfega
màxima
Total
(mm)
Índex-n
Mínima Mitjana Màxima Mínima Mitjana Màxima n
0 a 1
P0 max
mm 5'
Dades mensuals acumulades fins l'últim dia disponible
01/2021 4,0 4,4 4,8 9,1 14,6 15,8 16,9 12,9 20 49 66 1.021 1.026 1.029   5,1 35,4 0,0
Dades anuals acumulades fins l'últim dia disponible
2021 4,0 4,4 4,8 9,1 14,6 15,8 16,9 12,9 20 49 66 1.021 1.026 1.029   5,1 35,4 0,0
Últims 30 dies disponibles
19-01-2021 4,8     9,8     16,9 12,1 20 46 66 1.021 1.025 1.029 S 6,1 35,4 0,0
18-01-2021 4,0     8,4     14,6 10,6 33 51 64 1.026 1.027 1.029 SSE 4,0 20,9 0,0
16-12-2020 5,4     9,9     15,8 10,4 46 59 67 1.016 1.018 1.019 SW 4,8 38,6 0,0
15-12-2020 7,0     11,7     15,4 8,4 35 52 61 1.013 1.016 1.019 WSW 8,0 48,3 0,0
14-12-2020 11,5     14,9     18,9 7,4 22 37 60 1.011 1.013 1.015 SSE 4,5 25,7 0,0
13-12-2020 10,1     13,8     19,1 9,0 34 45 56 1.014 1.016 1.017 SW 7,7 35,4 0,0
12-12-2020 11,4     13,6     15,9 4,5 35 47 56 1.007 1.011 1.016 W 20,8 72,4 0,0
11-12-2020 13,3     15,8     18,3 5,0 52 57 64 1.006 1.009 1.013 W 22,4 72,4 0,6
10-12-2020 6,6     11,1     13,7 7,1 39 56 68 1.011 1.013 1.019 WSW 19,2 64,4 0,6
09-12-2020 4,3     7,2     10,9 6,6 26 43 53 1.015 1.017 1.020 WSW 13,8 61,2 0,0
08-12-2020 4,9     8,5     11,1 6,2 34 46 67 1.006 1.010 1.015 WSW 18,2 72,4 2,4
07-12-2020 5,0     9,6     13,8 8,8 40 51 58 1.006 1.010 1.014 WSW 25,6 77,2 0,0
06-12-2020 3,7     5,6     8,3 4,6 38 50 57 1.008 1.010 1.013 WSW 19,8 66,0 0,0
05-12-2020 2,4     4,3     6,7 4,3 43 52 62 997 1.003 1.009 SW 14,5 53,1 0,0
04-12-2020 4,8     8,3     11,3 6,5 33 50 63 996 999 1.005 WSW 17,7 74,0 0,6
03-12-2020 1,7     7,2     12,2 10,5 15 33 51 1.006 1.013 1.018 SW 9,0 43,5 0,0
02-12-2020 2,3     8,5     11,5 9,2 18 43 58 1.013 1.014 1.017 SW 7,1 38,6 0,0
01-12-2020 6,4     10,8     16,9 10,5 38 64 83 1.017 1.021 1.025 SW 5,0 24,1 0,4
30-11-2020 6,3     10,1     15,0 8,7 63 75 83 1.022 1.023 1.025 NNE 4,0 16,1 0,2
29-11-2020 5,8     9,7     14,3 8,5 64 74 81 1.013 1.017 1.021 SW 3,9 17,7 0,0
28-11-2020 7,4     9,2     11,3 3,9 70 79 83 1.004 1.007 1.013 WSW 4,5 29,0 0,4
27-11-2020 8,2     10,7     13,2 5,0 60 71 83 1.005 1.008 1.013 NE 5,1 35,4 23,0
26-11-2020 7,9     11,4     16,7 8,8 46 64 74 1.013 1.014 1.016 NE 3,2 29,0 0,0
25-11-2020 6,6     10,1     15,1 8,5 43 56 68 1.015 1.018 1.021 SSE 7,1 30,6 0,0
24-11-2020 6,6     10,4     16,3 9,7 33 56 68 1.021 1.024 1.028 SSE 7,6 32,2 0,0
23-11-2020 3,6     8,7     15,5 11,9 39 58 67 1.027 1.029 1.031 SSE 4,7 24,1 0,0
22-11-2020 2,9     8,5     16,1 13,2 23 59 80 1.027 1.029 1.031 SW 4,0 17,7 0,0
21-11-2020 4,8     8,8     13,9 9,1 58 69 79 1.028 1.029 1.031 NNE 4,5 22,5 0,0
20-11-2020 6,9     10,7     14,4 7,5 61 70 77 1.026 1.028 1.031 SSE 3,7 24,1 0,0
19-11-2020 9,7     12,6     17,4 7,7 56 70 84 1.028 1.030 1.032 SW 3,2 22,5 0,2
Últims 13 mesos disponibles
12/2020 1,7 6,3 13,3 10,1 6,7 13,7 19,1 17,4 33 49 64 999 1.012 1.021 WSW 13,6 77,2 4,6
11/2020 2,9 8,5 14,6 12,2 11,3 16,9 25,7 22,8 33 64 82 1.007 1.022 1.030 SSE 4,8 37,0 26,0
10/2020 5,9 11,0 18,2 16,1 16,3 21,7 27,4 21,5 27 44 54 1.001 1.018 1.026 SW 8,2 91,7 3,8
09/2020 10,6 15,3 18,9 20,2 20,6 25,7 29,4 18,8 29 49 66 1.012 1.018 1.024 SW 7,8 64,4 4,8
08/2020 12,3 20,2 26,3 25,5 22,2 31,5 39,5 27,2 18 41 65 1.003 1.014 1.019 SSE 8,1 86,9 16,4
07/2020 16,4 18,7 22,5 24,3 26,1 30,3 36,7 20,3 34 50 63 1.011 1.016 1.020 NNE 7,8 53,1 0,4
06/2020 11,1 15,8 20,6 21,2 18,3 26,8 32,2 21,1 29 46 71 1.005 1.015 1.021 SSE 8,8 62,8 21,2
05/2020 9,1 13,5 18,4 18,3 15,7 23,7 29,7 20,6 25 49 72 1.006 1.017 1.026 SSE 7,7 67,6 40,8
04/2020 4,8 8,8 13,2 12,4 12,1 16,9 21,2 16,4 30 63 84 1.007 1.017 1.026 NNE 6,7 61,2 46,8
03/2020 4,1 7,8 16,2 11,0 5,7 14,8 25,9 21,8 31 61 88 1.009 1.018 1.027 NE 9,7 96,6 75,2
02/2020 3,4 8,2 12,3 12,6 11,4 18,1 23,2 19,8 4 50 80 1.015 1.026 1.034 WSW 7,3 53,1 1,6
01/2020 0,1 4,9 10,7 8,4 6,1 13,0 17,1 17,0 33 60 86 1.016 1.026 1.033 SSE 7,1 78,9 190,8
12/2019 2,1 7,4 15,0 10,8 8,6 14,9 22,2 20,1 32 57 87 1.004 1.020 1.033 SW 10,1 104,6 69,8
Tots els anys disponibles
2020 0,1 11,9 26,3 16,3 5,7 21,5 39,5 39,4 4 52 88 999 1.018 1.034 SSE 7,9 96,6 440,8
2019 -1,4 11,3 24,8 15,8 7,4 20,9 37,9 39,3 17 50 89 996 1.018 1.034 NNE 8,8 104,6 460,2
Temperatura (°C)
Humitat relativa (%)
Velocitat del vent i ràfega màxima (km/h)
Direcció del vent (°)
Pressió (hPa)
Precipitació (mm)
Nota sobre les dades: s'avisa a l'usuari de la provisionalitat i no oficialitat d'aquestes dades
Logo AVAMET blanc
Web allotjada a Sollutia
Llicència de Creative CommonsLa web d'AVAMET i els seus continguts estan subjectes a una llicència de
Reconeixement - No Comercial - Compartir igual
Avís legal - Política de privacitat - Política de cookies
NOVES ESTACIONS: Rossell - la Vila (Soci), Onda - CR Cota 220 (Soci), Artana (Ajuntament/Soci), Sax (Soci), Benicarló - Sant Gregori (Soci), Riba-roja de Túria - la Reva (Soci), Castielfabib - Arroyo Cerezo (Pròpia d'AVAMET), Tavernes de la Valldigna - Ull del Bou/Cambro (Soci), Chella - Casa Conde (Soci), El Genovés (Inforatge) - - -